createdAt,value
2023-04-10T00:04:00.693Z,60.90
2023-04-10T00:09:04.408Z,61.58
2023-04-10T00:14:07.673Z,63.19
2023-04-10T00:19:12.821Z,63.83
2023-04-10T00:24:16.593Z,63.39
2023-04-10T00:29:20.206Z,63.00
2023-04-10T00:34:25.260Z,62.79
2023-04-10T00:39:28.717Z,62.89
2023-04-10T00:44:32.279Z,63.08
2023-04-10T00:49:37.140Z,64.89
2023-04-10T00:54:41.149Z,64.96
2023-04-10T00:59:44.486Z,64.58
2023-04-10T01:04:49.608Z,64.36
2023-04-10T01:10:00.458Z,63.56
2023-04-10T01:15:10.926Z,63.83
2023-04-10T01:20:20.734Z,64.38
2023-04-10T01:25:41.577Z,64.75
2023-04-10T01:30:48.702Z,64.32
2023-04-10T01:35:56.418Z,63.87
2023-04-10T01:41:01.344Z,63.24
2023-04-10T01:46:06.971Z,64.12
2023-04-10T01:51:12.121Z,64.97
2023-04-10T01:56:16.029Z,66.20
2023-04-10T02:01:29.798Z,65.24
2023-04-10T02:06:45.036Z,65.07
2023-04-10T02:12:00.200Z,65.61
2023-04-10T02:17:04.989Z,66.81
2023-04-10T02:22:08.837Z,66.16
2023-04-10T02:27:11.989Z,64.84
2023-04-10T02:32:17.488Z,64.63
2023-04-10T02:37:20.752Z,64.04
2023-04-10T02:42:24.055Z,64.80
2023-04-10T02:47:28.692Z,63.46
2023-04-10T02:52:31.855Z,63.36
2023-04-10T02:57:36.391Z,63.03
2023-04-10T03:02:41.071Z,63.23
2023-04-10T03:07:44.300Z,64.18
2023-04-10T03:12:48.892Z,63.72
2023-04-10T03:17:53.590Z,63.94
2023-04-10T03:22:56.877Z,64.09
2023-04-10T03:27:59.995Z,64.03
2023-04-10T03:33:04.684Z,64.25
2023-04-10T03:38:07.862Z,64.58
2023-04-10T03:43:11.088Z,65.04
2023-04-10T03:48:15.797Z,65.33
2023-04-10T03:53:18.962Z,65.37
2023-04-10T03:58:22.080Z,65.95
2023-04-10T04:03:26.879Z,65.66
2023-04-10T04:08:30.196Z,65.50
2023-04-10T04:13:33.416Z,65.43
2023-04-10T04:18:37.976Z,65.22
2023-04-10T04:23:41.128Z,65.37
2023-04-10T04:28:44.238Z,65.63
2023-04-10T04:33:48.792Z,65.63
2023-04-10T04:38:51.902Z,65.73
2023-04-10T04:43:55.944Z,65.82
2023-04-10T04:49:00.888Z,65.85
2023-04-10T04:54:04.032Z,65.79
2023-04-10T04:59:07.194Z,66.03
2023-04-10T05:04:11.956Z,65.95
2023-04-10T05:09:15.191Z,65.58
2023-04-10T05:14:18.385Z,66.37
2023-04-10T05:19:23.020Z,66.12
2023-04-10T05:24:26.248Z,66.26
2023-04-10T05:29:29.541Z,65.79
2023-04-10T05:34:34.165Z,65.60
2023-04-10T05:39:37.391Z,65.70
2023-04-10T05:44:40.644Z,65.09
2023-04-10T05:49:45.491Z,63.89
2023-04-10T05:54:48.760Z,63.68
2023-04-10T05:59:52.061Z,63.29
2023-04-10T06:04:57.067Z,63.27
2023-04-10T06:10:00.608Z,63.13
2023-04-10T06:15:04.121Z,63.27
2023-04-10T06:20:10.789Z,63.18
2023-04-10T06:25:14.105Z,63.01
2023-04-10T06:30:17.320Z,62.52
2023-04-10T06:35:22.842Z,61.98
2023-04-10T06:40:26.168Z,61.66
2023-04-10T06:45:29.446Z,61.71
2023-04-10T06:50:34.097Z,61.27
2023-04-10T06:55:37.801Z,60.89
2023-04-10T07:00:41.129Z,60.21
2023-04-10T07:05:45.877Z,58.19
2023-04-10T07:10:49.109Z,56.32
2023-04-10T07:15:52.512Z,54.10
2023-04-10T07:20:57.243Z,52.53
2023-04-10T07:26:00.211Z,51.51
2023-04-10T07:31:03.625Z,51.00
2023-04-10T07:36:09.591Z,49.57
2023-04-10T07:41:13.363Z,47.89
2023-04-10T07:46:17.665Z,47.67
2023-04-10T07:51:22.456Z,47.47
2023-04-10T07:56:25.761Z,46.29
2023-04-10T08:01:29.203Z,46.24
2023-04-10T08:06:34.135Z,44.73
2023-04-10T08:11:38.699Z,43.89
2023-04-10T08:16:42.141Z,43.60
2023-04-10T08:21:46.813Z,42.99
2023-04-10T08:26:50.066Z,42.28
2023-04-10T08:31:54.755Z,40.46
2023-04-10T08:36:59.846Z,38.78
2023-04-10T08:42:03.688Z,37.32
2023-04-10T08:47:07.785Z,37.10
2023-04-10T08:52:17.238Z,36.76
2023-04-10T08:57:22.582Z,39.51
2023-04-10T09:02:26.234Z,41.31
2023-04-10T09:07:30.809Z,45.55
2023-04-10T09:12:45.123Z,48.92
2023-04-10T09:17:58.230Z,52.42
2023-04-10T09:23:03.082Z,51.75
2023-04-10T09:28:07.898Z,52.98
2023-04-10T09:33:23.851Z,53.27
2023-04-10T09:38:28.454Z,51.80
2023-04-10T09:43:31.636Z,52.69
2023-04-10T09:48:34.894Z,52.69
2023-04-10T09:53:51.179Z,52.60
2023-04-10T09:58:58.185Z,52.12
2023-04-10T10:04:03.336Z,53.28
2023-04-10T10:09:08.004Z,54.12
2023-04-10T10:14:18.187Z,54.25
2023-04-10T10:19:28.521Z,54.64
2023-04-10T10:24:34.897Z,55.92
2023-04-10T10:29:42.106Z,55.91
2023-04-10T10:34:48.372Z,56.76
2023-04-10T10:40:01.704Z,55.17
2023-04-10T10:45:12.923Z,53.84
2023-04-10T10:50:16.160Z,54.39
2023-04-10T10:55:39.391Z,54.38
2023-04-10T11:01:13.682Z,53.93
2023-04-10T11:06:19.926Z,52.28
2023-04-10T11:11:28.090Z,51.75
2023-04-10T11:16:47.397Z,48.71
2023-04-10T11:22:08.920Z,48.30
2023-04-10T11:27:49.385Z,47.75
2023-04-10T11:32:56.800Z,42.38
2023-04-10T11:38:20.728Z,43.69
2023-04-10T11:43:27.469Z,43.21
2023-04-10T11:48:34.611Z,44.54
2023-04-10T11:53:38.791Z,46.15
2023-04-10T11:58:54.035Z,45.92
2023-04-10T12:03:58.811Z,46.77
2023-04-10T12:09:04.843Z,46.10
2023-04-10T12:14:12.116Z,47.63
2023-04-10T12:19:19.318Z,47.43
2023-04-10T12:24:45.643Z,47.31
2023-04-10T12:29:54.889Z,47.98
2023-04-10T12:35:02.292Z,46.20
2023-04-10T12:40:10.470Z,46.38
2023-04-10T12:45:19.552Z,44.21
2023-04-10T12:50:24.097Z,44.79
2023-04-10T12:55:29.163Z,43.86
2023-04-10T13:00:35.480Z,42.65
2023-04-10T13:05:39.437Z,44.01
2023-04-10T13:10:44.800Z,45.32
2023-04-10T13:15:52.335Z,44.64
2023-04-10T13:20:56.416Z,44.68
2023-04-10T13:26:00.770Z,43.47
2023-04-10T13:31:06.330Z,43.91
2023-04-10T13:36:11.374Z,43.75
2023-04-10T13:41:15.530Z,44.83
2023-04-10T13:46:20.860Z,44.36
2023-04-10T13:51:25.186Z,44.60
2023-04-10T13:56:31.358Z,44.02
2023-04-10T14:01:38.982Z,43.02
2023-04-10T14:06:43.211Z,43.97
2023-04-10T14:11:46.360Z,44.13
2023-04-10T14:16:52.831Z,43.74
2023-04-10T14:21:56.980Z,42.88
2023-04-10T14:27:01.967Z,42.70
2023-04-10T14:32:08.612Z,42.93
2023-04-10T14:37:15.268Z,43.25
2023-04-10T14:42:20.055Z,43.15
2023-04-10T14:47:26.587Z,43.50
2023-04-10T14:52:29.733Z,43.68
2023-04-10T14:57:32.890Z,43.38
2023-04-10T15:02:38.576Z,43.16
2023-04-10T15:07:41.802Z,43.15
2023-04-10T15:12:44.954Z,44.16
2023-04-10T15:17:49.638Z,43.82
2023-04-10T15:22:52.773Z,44.34
2023-04-10T15:27:56.482Z,45.29
2023-04-10T15:33:01.389Z,45.08
2023-04-10T15:38:04.569Z,45.15
2023-04-10T15:43:07.695Z,45.19
2023-04-10T15:48:12.229Z,45.74
2023-04-10T15:53:15.608Z,46.49
2023-04-10T15:58:19.102Z,47.03
2023-04-10T16:03:23.811Z,47.92
2023-04-10T16:08:27.571Z,48.72
2023-04-10T16:13:30.779Z,49.53
2023-04-10T16:18:35.479Z,49.62
2023-04-10T16:23:38.711Z,49.78
2023-04-10T16:28:41.820Z,50.42
2023-04-10T16:33:46.445Z,50.51
2023-04-10T16:38:50.464Z,51.59
2023-04-10T16:43:53.762Z,51.50
2023-04-10T16:48:58.274Z,51.13
2023-04-10T16:54:01.439Z,51.40
2023-04-10T16:59:04.591Z,51.41
2023-04-10T17:04:09.398Z,51.41
2023-04-10T17:09:12.694Z,51.41
2023-04-10T17:14:16.220Z,51.75
2023-04-10T17:19:20.828Z,51.69
2023-04-10T17:24:24.066Z,51.57
2023-04-10T17:29:27.200Z,51.77
2023-04-10T17:34:31.778Z,51.68
2023-04-10T17:39:34.923Z,51.92
2023-04-10T17:44:38.056Z,51.82
2023-04-10T17:49:42.591Z,52.40
2023-04-10T17:54:45.738Z,52.42
2023-04-10T17:59:49.824Z,52.51
2023-04-10T18:04:54.380Z,52.39
2023-04-10T18:09:57.571Z,52.80
2023-04-10T18:15:00.818Z,52.94
2023-04-10T18:20:05.845Z,53.42
2023-04-10T18:25:09.932Z,53.86
2023-04-10T18:30:13.891Z,54.22
2023-04-10T18:35:18.682Z,54.57
2023-04-10T18:40:22.372Z,54.78
2023-04-10T18:45:25.479Z,55.72
2023-04-10T18:50:30.092Z,56.59
2023-04-10T18:55:33.016Z,57.35
2023-04-10T19:00:36.247Z,57.37
2023-04-10T19:05:40.833Z,57.64
2023-04-10T19:10:44.074Z,58.23
2023-04-10T19:15:48.350Z,57.86
2023-04-10T19:20:53.055Z,58.21
2023-04-10T19:25:56.458Z,58.20
2023-04-10T19:30:59.682Z,58.17
2023-04-10T19:41:14.842Z,58.64
2023-04-10T19:46:18.755Z,59.12
2023-04-10T19:51:23.638Z,58.57
2023-04-10T19:56:28.646Z,58.70
2023-04-10T20:01:31.802Z,59.12
2023-04-10T20:06:36.391Z,59.48
2023-04-10T20:11:39.251Z,60.46
2023-04-10T20:16:42.487Z,60.02
2023-04-10T20:21:47.045Z,60.56
2023-04-10T20:26:50.183Z,60.38
2023-04-10T20:31:53.472Z,60.93
2023-04-10T20:36:58.013Z,60.82
2023-04-10T20:42:01.482Z,60.43
2023-04-10T20:47:05.751Z,60.98
2023-04-10T20:52:10.447Z,61.32
2023-04-10T20:57:13.310Z,62.46
2023-04-10T21:02:18.160Z,61.62
2023-04-10T21:07:22.779Z,62.27
2023-04-10T21:12:25.933Z,62.97
2023-04-10T21:17:31.567Z,63.21
2023-04-10T21:22:36.388Z,63.43
2023-04-10T21:27:39.260Z,64.43
2023-04-10T21:32:42.419Z,64.39
2023-04-10T21:37:47.016Z,63.67
2023-04-10T21:42:50.145Z,64.13
2023-04-10T21:47:53.296Z,65.15
2023-04-10T21:52:57.830Z,65.23
2023-04-10T21:58:00.970Z,65.19
2023-04-10T22:03:04.179Z,65.33
2023-04-10T22:08:08.975Z,65.95
2023-04-10T22:13:16.992Z,66.29
2023-04-10T22:18:26.803Z,65.32
2023-04-10T22:23:31.404Z,65.40
2023-04-10T22:28:34.549Z,65.95
2023-04-10T22:33:38.067Z,66.92
2023-04-10T22:38:42.625Z,67.25
2023-04-10T22:43:45.791Z,66.21
2023-04-10T22:48:48.898Z,66.83
2023-04-10T22:53:53.479Z,66.90
2023-04-10T22:58:56.877Z,66.63
2023-04-10T23:04:00.255Z,66.88
2023-04-10T23:09:04.856Z,67.78
2023-04-10T23:14:08.066Z,67.01
2023-04-10T23:19:11.224Z,67.26
2023-04-10T23:24:15.767Z,66.85
2023-04-10T23:29:18.881Z,67.34
2023-04-10T23:34:22.035Z,66.85
2023-04-10T23:39:26.589Z,67.46
2023-04-10T23:44:29.753Z,67.98
2023-04-10T23:49:34.933Z,67.71
2023-04-10T23:54:39.966Z,68.44
2023-04-10T23:59:43.097Z,68.77
